Time;durP1;ratioP1;P1;durP2;ratioP2;P2;SDS_P1;SDS_P2;PMS_P1;PMS_P2;Temp;Humidity;BMP_temperature;BMP_pressure;BME280_temperature;BME280_humidity;BME280_pressure;Samples;Min_cycle;Max_cycle;Signal;HPM_P1;HPM_P2
2022/12/21 00:00:38;;;;;;;64.10;31.57;;;3.40;99.90;;;;;;10396166;28;20194;-79
2022/12/21 00:06:00;;;;;;;63.20;32.77;;;3.40;99.90;;;;;;10376988;28;20223;-76
2022/12/21 00:11:22;;;;;;;72.00;34.23;;;3.40;99.90;;;;;;10396019;28;20417;-76
2022/12/21 00:16:43;;;;;;;59.07;30.07;;;3.30;99.90;;;;;;10395508;28;20276;-76
2022/12/21 00:22:05;;;;;;;66.10;32.33;;;3.30;99.90;;;;;;10362831;28;20405;-78
2022/12/21 00:27:26;;;;;;;61.23;33.13;;;3.30;99.90;;;;;;10381163;28;20220;-76
2022/12/21 00:32:47;;;;;;;82.43;36.97;;;3.30;99.90;;;;;;10394695;28;20342;-76
2022/12/21 00:38:08;;;;;;;68.67;34.93;;;3.30;99.90;;;;;;10349133;28;20427;-79
2022/12/21 00:43:31;;;;;;;68.57;32.60;;;3.30;99.90;;;;;;10355559;28;20194;-79
2022/12/21 00:48:54;;;;;;;67.47;31.27;;;3.30;99.90;;;;;;10388533;28;20272;-78
2022/12/21 00:54:15;;;;;;;69.73;34.17;;;3.20;99.90;;;;;;10381420;28;20193;-78
2022/12/21 00:59:37;;;;;;;71.43;35.27;;;3.30;99.90;;;;;;10393177;28;20204;-78
2022/12/21 01:05:00;;;;;;;65.20;34.37;;;3.20;99.90;;;;;;10408567;28;20259;-79
2022/12/21 01:10:21;;;;;;;61.67;32.20;;;3.20;99.90;;;;;;10394578;28;20200;-78
2022/12/21 01:15:44;;;;;;;61.27;32.03;;;3.20;99.90;;;;;;10374068;28;20216;-79
2022/12/21 01:21:05;;;;;;;63.30;31.93;;;3.20;99.90;;;;;;10353521;28;20230;-78
2022/12/21 01:26:28;;;;;;;63.43;31.90;;;3.20;99.90;;;;;;10385530;28;20272;-78
2022/12/21 01:31:48;;;;;;;64.30;31.83;;;3.20;99.90;;;;;;10392870;28;20244;-77
2022/12/21 01:37:09;;;;;;;66.07;31.63;;;3.10;99.90;;;;;;10370494;28;20202;-78
2022/12/21 01:42:30;;;;;;;67.87;31.27;;;3.10;99.90;;;;;;10360014;28;20392;-79
2022/12/21 01:47:54;;;;;;;60.43;31.40;;;3.20;99.90;;;;;;10399716;28;20279;-79
2022/12/21 01:53:15;;;;;;;62.23;31.07;;;3.10;99.90;;;;;;10400857;28;20250;-78
2022/12/21 01:58:40;;;;;;;57.80;30.13;;;3.10;99.90;;;;;;10400650;28;20284;-78
2022/12/21 02:04:02;;;;;;;64.27;32.57;;;3.10;99.90;;;;;;10386834;28;20244;-78
2022/12/21 02:09:27;;;;;;;67.53;32.50;;;3.10;99.90;;;;;;10386769;28;20396;-78
2022/12/21 02:14:48;;;;;;;72.30;35.73;;;3.10;99.90;;;;;;10381549;28;20205;-78
2022/12/21 02:20:47;;;;;;;60.90;31.17;;;3.10;99.90;;;;;;10364650;28;20217;-78
2022/12/21 02:26:17;;;;;;;54.57;31.00;;;3.10;99.90;;;;;;10400882;28;20252;-77
2022/12/21 02:31:51;;;;;;;65.97;31.67;;;3.10;99.90;;;;;;10365236;28;20252;-79
2022/12/21 02:37:38;;;;;;;66.00;33.17;;;3.20;99.90;;;;;;10369979;28;20487;-78
2022/12/21 02:49:15;;;;;;;63.20;31.80;;;3.20;99.90;;;;;;10385022;28;20376;-79
2022/12/21 02:54:41;;;;;;;66.97;30.73;;;3.20;99.90;;;;;;10384287;28;20492;-78
2022/12/21 03:00:08;;;;;;;65.83;32.80;;;3.20;99.90;;;;;;10382939;28;20209;-78
2022/12/21 03:05:44;;;;;;;67.37;32.87;;;3.10;99.90;;;;;;10385385;28;20225;-79
2022/12/21 03:11:09;;;;;;;62.50;30.97;;;3.20;99.90;;;;;;10384035;28;20208;-78
2022/12/21 03:16:51;;;;;;;60.40;31.13;;;3.10;99.90;;;;;;10396833;28;20201;-80
2022/12/21 03:22:29;;;;;;;65.93;32.23;;;3.20;99.90;;;;;;10372441;28;20204;-79
2022/12/21 03:27:54;;;;;;;66.80;33.03;;;3.20;99.90;;;;;;10393526;28;20235;-80
2022/12/21 03:33:20;;;;;;;73.13;33.63;;;3.20;99.90;;;;;;10410476;28;20259;-78
2022/12/21 03:38:50;;;;;;;64.70;31.27;;;3.20;99.90;;;;;;10396844;28;20209;-78
2022/12/21 03:44:17;;;;;;;57.73;29.87;;;3.20;99.90;;;;;;10382840;28;20377;-78
2022/12/21 03:49:52;;;;;;;61.83;32.00;;;3.20;99.90;;;;;;10382488;28;20199;-76
2022/12/21 03:55:22;;;;;;;65.23;33.23;;;3.20;99.90;;;;;;10361039;28;20231;-77
2022/12/21 04:01:05;;;;;;;62.23;33.47;;;3.20;99.90;;;;;;10355799;28;20388;-78
2022/12/21 04:06:29;;;;;;;56.87;30.07;;;3.20;99.90;;;;;;10364368;28;20224;-79
2022/12/21 04:17:32;;;;;;;60.47;31.23;;;3.20;99.90;;;;;;10381558;28;20227;-79
2022/12/21 04:28:33;;;;;;;61.63;30.63;;;3.30;99.90;;;;;;10395269;28;20425;-78
2022/12/21 04:34:10;;;;;;;67.97;32.17;;;3.30;99.90;;;;;;10395995;28;20240;-78
2022/12/21 04:39:32;;;;;;;61.50;31.20;;;3.30;99.90;;;;;;10394866;28;20383;-78
2022/12/21 04:44:54;;;;;;;57.17;29.87;;;3.30;99.90;;;;;;10394991;28;20236;-77
2022/12/21 04:50:15;;;;;;;61.23;30.53;;;3.30;99.90;;;;;;10393222;28;20416;-76
2022/12/21 04:55:36;;;;;;;57.73;30.10;;;3.30;99.90;;;;;;10380347;28;20217;-77
2022/12/21 05:00:57;;;;;;;58.20;28.60;;;3.30;99.90;;;;;;10345992;28;20424;-77
2022/12/21 05:06:20;;;;;;;64.13;29.00;;;3.30;99.90;;;;;;10382104;28;20269;-79
2022/12/21 05:11:41;;;;;;;59.80;30.60;;;3.30;99.90;;;;;;10394392;28;20235;-77
2022/12/21 05:17:03;;;;;;;65.03;31.80;;;3.30;99.90;;;;;;10386040;28;20197;-78
2022/12/21 05:22:24;;;;;;;98.70;40.57;;;3.30;99.90;;;;;;10366595;28;20400;-77
2022/12/21 05:27:45;;;;;;;74.37;34.90;;;3.20;99.90;;;;;;10417586;28;20229;-76
2022/12/21 05:33:07;;;;;;;80.00;35.57;;;3.30;99.90;;;;;;10386703;28;20540;-79
2022/12/21 05:38:28;;;;;;;63.27;32.80;;;3.30;99.90;;;;;;10372145;28;20219;-76
2022/12/21 05:43:50;;;;;;;78.60;37.80;;;3.30;99.90;;;;;;10370371;28;20193;-79
2022/12/21 05:49:11;;;;;;;75.83;33.60;;;3.30;99.90;;;;;;10400201;28;20281;-77
2022/12/21 05:54:32;;;;;;;85.30;40.30;;;3.30;99.90;;;;;;10400507;28;20213;-77
2022/12/21 05:59:53;;;;;;;79.67;37.47;;;3.30;99.90;;;;;;10400662;28;20199;-79
2022/12/21 06:05:15;;;;;;;79.17;36.20;;;3.20;99.90;;;;;;10388675;28;20417;-79
2022/12/21 06:10:37;;;;;;;63.17;32.03;;;3.20;99.90;;;;;;10378866;28;20200;-79
2022/12/21 06:16:07;;;;;;;81.17;36.40;;;3.20;99.90;;;;;;10386461;28;20217;-79
2022/12/21 06:21:28;;;;;;;65.57;34.33;;;3.20;99.90;;;;;;10398356;28;20197;-79
2022/12/21 06:26:49;;;;;;;67.87;32.70;;;3.20;99.90;;;;;;10398678;28;20217;-78
2022/12/21 06:32:11;;;;;;;69.10;33.03;;;3.20;99.90;;;;;;10400290;28;20225;-79
2022/12/21 06:37:32;;;;;;;93.47;41.17;;;3.20;99.90;;;;;;10379331;28;20225;-77
2022/12/21 06:42:53;;;;;;;96.57;42.60;;;3.20;99.90;;;;;;10359295;28;20191;-76
2022/12/21 06:48:14;;;;;;;67.90;33.53;;;3.20;99.90;;;;;;10347927;28;20259;-79
2022/12/21 06:53:37;;;;;;;58.93;29.83;;;3.20;99.90;;;;;;10384454;28;20194;-79
2022/12/21 06:58:58;;;;;;;53.47;28.63;;;3.30;99.90;;;;;;10370757;28;20218;-78
2022/12/21 07:04:20;;;;;;;52.20;28.03;;;3.30;99.90;;;;;;10385548;28;20209;-78
2022/12/21 07:09:41;;;;;;;58.30;30.90;;;3.30;99.90;;;;;;10375889;28;20696;-78
2022/12/21 07:15:03;;;;;;;61.33;32.60;;;3.30;99.90;;;;;;10411874;28;20204;-77
2022/12/21 07:20:24;;;;;;;63.13;33.63;;;3.30;99.90;;;;;;10395571;28;20211;-77
2022/12/21 07:25:45;;;;;;;60.70;32.47;;;3.20;99.90;;;;;;10398240;28;20276;-77
2022/12/21 07:31:09;;;;;;;68.87;33.77;;;3.20;99.90;;;;;;10382859;28;20316;-76
2022/12/21 07:36:30;;;;;;;68.67;37.20;;;3.20;99.90;;;;;;10396617;28;20193;-77
2022/12/21 07:41:50;;;;;;;71.23;33.93;;;3.20;99.90;;;;;;10396954;28;20192;-77
2022/12/21 07:47:12;;;;;;;59.63;32.67;;;3.10;99.90;;;;;;10382059;28;20287;-79
2022/12/21 07:52:34;;;;;;;71.93;36.90;;;3.10;99.90;;;;;;10381709;28;20193;-77
2022/12/21 07:57:55;;;;;;;74.17;39.93;;;3.20;99.90;;;;;;10396286;28;20201;-78
2022/12/21 08:03:17;;;;;;;68.03;36.33;;;3.20;99.90;;;;;;10381075;28;20522;-78
2022/12/21 08:08:39;;;;;;;63.63;33.53;;;3.10;99.90;;;;;;10381113;28;20393;-79
2022/12/21 08:14:01;;;;;;;61.17;31.10;;;3.20;99.90;;;;;;10364351;28;20308;-79
2022/12/21 08:19:22;;;;;;;59.27;30.90;;;3.20;99.90;;;;;;10385806;28;20205;-81
2022/12/21 08:24:43;;;;;;;61.63;31.57;;;3.20;99.90;;;;;;10361965;28;20212;-78
2022/12/21 08:30:05;;;;;;;59.73;29.97;;;3.20;99.90;;;;;;10389544;28;20233;-78
2022/12/21 08:35:28;;;;;;;58.33;30.90;;;3.20;99.90;;;;;;10361014;28;20209;-80
2022/12/21 08:40:51;;;;;;;57.63;29.33;;;3.10;99.90;;;;;;10358425;28;20208;-80
2022/12/21 08:46:12;;;;;;;64.57;32.17;;;3.20;99.90;;;;;;10403691;28;20235;-79
2022/12/21 08:51:34;;;;;;;63.83;33.53;;;3.20;99.90;;;;;;10389227;28;20251;-77
2022/12/21 08:56:56;;;;;;;66.73;34.00;;;3.20;99.90;;;;;;10380831;28;20209;-79
2022/12/21 09:02:17;;;;;;;51.93;26.93;;;3.20;99.90;;;;;;10359171;28;20216;-78
2022/12/21 09:07:38;;;;;;;53.03;28.60;;;3.30;99.90;;;;;;10367437;28;20237;-78
2022/12/21 09:12:59;;;;;;;45.80;24.63;;;3.20;99.90;;;;;;10391044;28;20223;-81
2022/12/21 09:18:21;;;;;;;51.23;26.67;;;3.30;99.90;;;;;;10368623;28;20211;-80
2022/12/21 09:23:42;;;;;;;50.27;27.63;;;3.30;99.90;;;;;;10388684;28;20514;-80
2022/12/21 09:29:04;;;;;;;94.37;39.87;;;3.30;99.90;;;;;;10358086;28;20225;-79
2022/12/21 09:34:25;;;;;;;58.63;30.50;;;3.30;99.90;;;;;;10385285;28;20328;-80
2022/12/21 09:39:47;;;;;;;58.53;33.13;;;3.30;99.90;;;;;;10367017;28;20441;-83
2022/12/21 09:45:20;;;;;;;62.03;32.40;;;3.40;99.90;;;;;;10389008;28;20224;-83
2022/12/21 09:51:11;;;;;;;59.17;30.63;;;3.40;99.90;;;;;;10381238;28;20437;-79
2022/12/21 09:56:39;;;;;;;61.27;32.20;;;3.40;99.90;;;;;;10371815;28;20457;-81
2022/12/21 10:02:18;;;;;;;70.57;35.73;;;3.40;99.90;;;;;;10374461;28;20211;-84
2022/12/21 10:08:14;;;;;;;77.30;35.40;;;3.40;99.90;;;;;;10377289;28;20573;-80
2022/12/21 10:14:05;;;;;;;80.77;45.03;;;3.50;99.90;;;;;;10372594;28;20608;-80
2022/12/21 10:19:39;;;;;;;56.80;31.37;;;3.40;99.90;;;;;;10375475;28;20221;-81
2022/12/21 10:25:33;;;;;;;53.10;28.33;;;3.50;99.90;;;;;;10396458;28;20231;-80
2022/12/21 10:31:07;;;;;;;41.63;24.43;;;3.50;99.90;;;;;;10373186;28;20316;-79
2022/12/21 10:36:37;;;;;;;47.47;25.90;;;3.60;99.90;;;;;;10362814;28;20221;-80
2022/12/21 10:42:03;;;;;;;56.37;31.80;;;3.60;99.90;;;;;;10354593;28;20224;-81
2022/12/21 10:47:25;;;;;;;42.83;22.07;;;3.70;99.90;;;;;;10375608;28;20295;-80
2022/12/21 10:52:48;;;;;;;37.37;21.57;;;3.70;99.90;;;;;;10346990;28;20241;-84
2022/12/21 10:58:23;;;;;;;41.60;20.73;;;3.70;99.90;;;;;;10355945;28;20262;-81
2022/12/21 11:03:44;;;;;;;37.43;21.00;;;3.70;99.90;;;;;;10354947;28;20264;-80
2022/12/21 11:09:28;;;;;;;36.50;19.93;;;3.70;99.90;;;;;;10369387;28;20234;-80
2022/12/21 11:14:50;;;;;;;38.73;20.83;;;3.70;99.90;;;;;;10361275;28;20228;-87
2022/12/21 11:20:21;;;;;;;35.70;19.03;;;3.70;99.90;;;;;;10368605;28;20233;-82
2022/12/21 11:25:43;;;;;;;33.57;19.77;;;3.70;99.90;;;;;;10366259;28;20233;-80
2022/12/21 11:31:06;;;;;;;47.83;25.13;;;3.70;99.90;;;;;;10382302;28;20242;-80
2022/12/21 11:36:27;;;;;;;48.37;26.00;;;3.80;99.90;;;;;;10359608;28;20224;-80
2022/12/21 11:41:53;;;;;;;48.63;27.40;;;3.80;99.90;;;;;;10389480;28;20198;-80
2022/12/21 11:47:17;;;;;;;46.40;26.43;;;3.80;99.90;;;;;;10365771;28;20299;-81
2022/12/21 11:52:56;;;;;;;38.63;24.20;;;3.80;99.90;;;;;;10369038;28;20200;-85
2022/12/21 11:59:01;;;;;;;46.10;27.33;;;3.80;99.90;;;;;;10398351;28;20212;-86
2022/12/21 12:04:49;;;;;;;60.17;32.00;;;3.80;99.90;;;;;;10382941;28;20570;-80
2022/12/21 12:10:21;;;;;;;69.27;34.73;;;3.80;99.90;;;;;;10392609;28;20269;-80
2022/12/21 12:15:56;;;;;;;60.97;32.70;;;3.90;99.90;;;;;;10381115;28;20232;-80
2022/12/21 12:21:44;;;;;;;70.93;40.27;;;3.80;99.90;;;;;;10389048;28;20192;-80
2022/12/21 12:27:28;;;;;;;69.20;41.23;;;3.90;99.90;;;;;;10384448;28;20243;-80
2022/12/21 12:33:10;;;;;;;58.67;35.43;;;3.90;99.90;;;;;;10363093;28;20233;-80
2022/12/21 12:38:49;;;;;;;43.47;23.10;;;3.80;99.90;;;;;;10386346;28;20201;-80
2022/12/21 12:44:22;;;;;;;47.37;25.20;;;3.80;99.90;;;;;;10375533;28;20282;-80
2022/12/21 12:50:05;;;;;;;48.57;26.07;;;3.90;99.90;;;;;;10417888;28;20233;-80
2022/12/21 12:55:37;;;;;;;59.37;29.77;;;3.80;99.90;;;;;;10368314;28;20200;-80
2022/12/21 13:01:21;;;;;;;57.40;30.03;;;3.90;99.90;;;;;;10387543;28;20200;-86
2022/12/21 13:07:05;;;;;;;68.50;35.23;;;3.80;99.90;;;;;;10390910;28;20226;-80
2022/12/21 13:12:50;;;;;;;50.17;27.03;;;3.80;99.90;;;;;;10376142;28;20217;-80
2022/12/21 13:18:19;;;;;;;45.17;25.37;;;3.80;99.90;;;;;;10390888;28;20208;-81
2022/12/21 13:24:19;;;;;;;51.90;27.43;;;3.80;99.90;;;;;;10377809;28;20248;-80
2022/12/21 13:29:54;;;;;;;45.90;25.13;;;3.80;99.90;;;;;;10358024;28;20471;-81
2022/12/21 13:35:51;;;;;;;48.33;25.90;;;3.80;99.90;;;;;;10411348;28;20221;-84
2022/12/21 13:41:37;;;;;;;43.40;24.07;;;3.80;99.90;;;;;;10366783;28;20212;-85
2022/12/21 13:46:59;;;;;;;45.03;24.47;;;3.80;99.90;;;;;;10350347;28;20248;-82
2022/12/21 13:52:49;;;;;;;43.30;25.23;;;3.80;99.90;;;;;;10357433;28;20218;-81
2022/12/21 13:58:35;;;;;;;43.50;23.03;;;3.80;99.90;;;;;;10349330;28;20218;-81
2022/12/21 14:04:13;;;;;;;46.47;24.83;;;3.80;99.90;;;;;;10344663;28;20564;-80
2022/12/21 14:09:58;;;;;;;52.60;26.83;;;3.80;99.90;;;;;;10337380;28;20267;-80
2022/12/21 14:15:48;;;;;;;70.13;34.37;;;3.70;99.90;;;;;;10333298;28;20312;-80
2022/12/21 14:21:25;;;;;;;78.80;41.93;;;3.70;99.90;;;;;;10344381;28;20218;-82
2022/12/21 14:27:06;;;;;;;95.47;51.20;;;3.70;99.90;;;;;;10362149;28;20256;-80
2022/12/21 14:32:28;;;;;;;89.63;49.97;;;3.70;99.90;;;;;;10335491;28;20240;-80
2022/12/21 14:38:09;;;;;;;66.40;36.67;;;3.70;99.90;;;;;;10340945;28;20308;-79
2022/12/21 14:43:31;;;;;;;146.03;55.70;;;3.70;99.90;;;;;;10364006;28;20210;-81
2022/12/21 14:49:08;;;;;;;192.50;65.87;;;3.70;99.90;;;;;;10342188;28;20233;-80
2022/12/21 14:54:37;;;;;;;64.37;31.37;;;3.80;99.90;;;;;;10374902;28;20502;-80
2022/12/21 15:00:06;;;;;;;76.73;31.87;;;3.70;99.90;;;;;;10384748;28;20459;-81
2022/12/21 15:05:40;;;;;;;58.13;27.80;;;3.70;99.90;;;;;;10375918;28;20399;-79
2022/12/21 15:11:03;;;;;;;53.27;27.57;;;3.70;99.90;;;;;;10368550;28;20220;-80
2022/12/21 15:16:32;;;;;;;50.43;26.40;;;3.70;99.90;;;;;;10378903;28;20221;-80
2022/12/21 15:22:08;;;;;;;44.87;23.37;;;3.70;99.90;;;;;;10387312;28;20205;-81
2022/12/21 15:27:39;;;;;;;54.43;27.77;;;3.70;99.90;;;;;;10376630;28;20235;-81
2022/12/21 15:33:19;;;;;;;57.10;30.63;;;3.70;99.90;;;;;;10365596;28;20246;-79
2022/12/21 15:39:05;;;;;;;57.63;30.50;;;3.70;99.90;;;;;;10380039;28;20516;-78
2022/12/21 15:44:53;;;;;;;66.40;32.00;;;3.70;99.90;;;;;;10384960;28;20761;-78
2022/12/21 15:50:23;;;;;;;83.20;38.27;;;3.70;99.90;;;;;;10387849;28;20231;-78
2022/12/21 15:55:47;;;;;;;84.90;35.00;;;3.70;99.90;;;;;;10350762;28;20238;-80
2022/12/21 16:01:23;;;;;;;83.80;39.30;;;3.70;99.90;;;;;;10376431;28;20268;-79
2022/12/21 16:06:56;;;;;;;82.53;39.27;;;3.80;99.90;;;;;;10367961;28;20245;-78
2022/12/21 16:12:25;;;;;;;70.30;34.60;;;3.70;99.90;;;;;;10365517;28;20201;-79
2022/12/21 16:18:13;;;;;;;50.00;30.38;;;3.70;99.90;;;;;;10389484;28;20486;-79
2022/12/21 16:23:46;;;;;;;56.37;30.00;;;3.70;99.90;;;;;;10366036;28;20211;-79
2022/12/21 16:29:18;;;;;;;58.13;30.23;;;3.70;99.90;;;;;;10354249;28;20239;-79
2022/12/21 16:34:52;;;;;;;52.20;28.30;;;3.70;99.90;;;;;;10371139;28;20205;-79
2022/12/21 16:40:25;;;;;;;56.17;29.33;;;3.70;99.90;;;;;;10350914;28;20277;-78
2022/12/21 16:45:58;;;;;;;55.20;30.40;;;3.70;99.90;;;;;;10405969;28;20210;-78
2022/12/21 16:51:40;;;;;;;56.87;29.30;;;3.80;99.90;;;;;;10354123;28;20195;-78
2022/12/21 16:57:02;;;;;;;55.03;28.33;;;3.80;99.90;;;;;;10433037;28;20564;-78
2022/12/21 17:02:34;;;;;;;82.80;38.90;;;3.80;99.90;;;;;;10428878;28;20197;-78
2022/12/21 17:07:57;;;;;;;80.23;37.60;;;3.80;99.90;;;;;;10348722;28;20235;-78
2022/12/21 17:13:19;;;;;;;95.73;46.10;;;3.80;99.90;;;;;;10396606;28;20251;-78
2022/12/21 17:18:49;;;;;;;103.13;45.03;;;3.70;99.90;;;;;;10402354;28;20221;-78
2022/12/21 17:24:29;;;;;;;83.67;39.63;;;3.70;99.90;;;;;;10359794;28;20203;-79
2022/12/21 17:29:54;;;;;;;68.23;33.73;;;3.80;99.90;;;;;;10363871;28;20245;-78
2022/12/21 17:35:17;;;;;;;56.50;30.90;;;3.80;99.90;;;;;;10347583;28;20199;-78
2022/12/21 17:40:38;;;;;;;54.00;27.70;;;3.80;99.90;;;;;;10364886;28;20198;-78
2022/12/21 17:45:59;;;;;;;74.33;35.03;;;3.80;99.90;;;;;;10360874;28;20242;-78
2022/12/21 17:51:22;;;;;;;73.73;30.97;;;3.80;99.90;;;;;;10394186;28;20205;-78
2022/12/21 17:56:43;;;;;;;69.83;31.83;;;3.90;99.90;;;;;;10427948;28;20500;-78
2022/12/21 18:02:12;;;;;;;65.67;31.87;;;3.80;99.90;;;;;;10407507;28;20205;-78
2022/12/21 18:07:34;;;;;;;61.93;33.10;;;3.80;99.90;;;;;;10386391;28;20232;-79
2022/12/21 18:12:56;;;;;;;61.03;32.03;;;3.80;99.90;;;;;;10380974;28;20203;-78
2022/12/21 18:18:21;;;;;;;59.27;31.50;;;3.80;99.90;;;;;;10359840;28;20497;-79
2022/12/21 18:23:42;;;;;;;58.93;33.50;;;3.80;99.90;;;;;;10385950;28;20210;-78
2022/12/21 18:29:17;;;;;;;71.87;39.47;;;3.80;99.90;;;;;;10385468;28;20255;-78
2022/12/21 18:34:38;;;;;;;94.73;49.10;;;3.80;99.90;;;;;;10386446;28;20282;-78
2022/12/21 18:40:00;;;;;;;137.80;65.93;;;3.80;99.90;;;;;;10384358;28;20497;-78
2022/12/21 18:45:21;;;;;;;61.80;33.00;;;3.80;99.90;;;;;;10396779;28;20205;-78
2022/12/21 18:50:43;;;;;;;59.13;33.57;;;3.80;99.90;;;;;;10397542;28;20267;-78
2022/12/21 18:56:07;;;;;;;80.93;38.70;;;3.80;99.90;;;;;;10384800;28;20197;-78
2022/12/21 19:01:31;;;;;;;81.80;39.00;;;3.80;99.90;;;;;;10397798;28;20206;-78
2022/12/21 19:06:53;;;;;;;87.20;39.63;;;3.90;99.90;;;;;;10398415;28;20218;-78
2022/12/21 19:12:18;;;;;;;62.93;32.50;;;3.90;99.90;;;;;;10382329;28;20267;-78
2022/12/21 19:17:40;;;;;;;40.77;21.77;;;3.90;99.90;;;;;;10384059;28;20277;-78
2022/12/21 19:23:03;;;;;;;47.93;24.73;;;3.90;99.90;;;;;;10396334;28;20515;-78
2022/12/21 19:28:24;;;;;;;41.77;22.27;;;3.90;99.90;;;;;;10383656;28;20229;-78
2022/12/21 19:33:46;;;;;;;50.60;24.63;;;3.90;99.90;;;;;;10372625;28;20265;-79
2022/12/21 19:39:27;;;;;;;45.27;24.20;;;3.90;99.90;;;;;;10342776;28;20203;-79
2022/12/21 19:44:50;;;;;;;50.93;25.67;;;3.90;99.90;;;;;;10369859;28;20198;-78
2022/12/21 19:50:20;;;;;;;62.20;30.43;;;3.90;99.90;;;;;;10380860;28;20225;-78
2022/12/21 19:55:41;;;;;;;58.00;28.13;;;3.90;99.90;;;;;;10382205;28;20429;-78
2022/12/21 20:01:04;;;;;;;46.70;26.13;;;3.90;99.90;;;;;;10395491;28;20247;-78
2022/12/21 20:06:26;;;;;;;59.67;30.60;;;3.90;99.90;;;;;;10382057;28;20212;-78
2022/12/21 20:11:48;;;;;;;55.93;28.97;;;3.90;99.90;;;;;;10367680;28;20209;-78
2022/12/21 20:17:13;;;;;;;61.73;34.10;;;3.90;99.90;;;;;;10368472;28;20389;-78
2022/12/21 20:22:34;;;;;;;50.17;25.97;;;3.90;99.90;;;;;;10388525;28;20206;-79
2022/12/21 20:27:57;;;;;;;44.87;25.67;;;3.90;99.90;;;;;;10368552;28;20220;-79
2022/12/21 20:33:24;;;;;;;51.33;26.83;;;3.90;99.90;;;;;;10365308;28;20233;-79
2022/12/21 20:38:47;;;;;;;42.03;23.20;;;3.90;99.90;;;;;;10355317;28;20273;-78
2022/12/21 20:44:08;;;;;;;74.73;37.03;;;3.90;99.90;;;;;;10400218;28;20202;-78
2022/12/21 20:49:31;;;;;;;102.70;45.70;;;4.00;99.90;;;;;;10377215;28;20301;-78
2022/12/21 20:56:23;;;;;;;77.10;38.10;;;4.00;99.90;;;;;;10353995;28;20365;-78
2022/12/21 21:00:40;;;;;;;65.77;33.43;;;4.00;99.90;;;;;;10343604;28;20534;-77
2022/12/21 21:06:01;;;;;;;39.83;25.60;;;4.00;99.90;;;;;;10353901;28;20505;-78
2022/12/21 21:17:03;;;;;;;42.53;24.33;;;4.10;99.90;;;;;;10436440;28;20264;-78
2022/12/21 21:28:19;;;;;;;55.23;27.03;;;4.20;99.90;;;;;;10394125;28;20466;-78
2022/12/21 21:33:42;;;;;;;95.90;42.20;;;4.20;99.90;;;;;;10370352;28;20227;-78
2022/12/21 21:44:47;;;;;;;44.60;23.33;;;4.20;99.90;;;;;;10380054;28;20210;-78
2022/12/21 21:50:18;;;;;;;38.63;19.93;;;4.10;99.90;;;;;;10379816;28;20248;-78
2022/12/21 21:55:39;;;;;;;35.20;17.60;;;4.20;99.90;;;;;;10430928;28;20202;-78
2022/12/21 22:01:14;;;;;;;32.83;17.90;;;4.10;99.90;;;;;;10436913;28;20542;-78
2022/12/21 22:06:36;;;;;;;36.13;20.37;;;4.10;99.90;;;;;;10430183;28;20198;-78
2022/12/21 22:11:57;;;;;;;45.40;20.83;;;4.10;99.90;;;;;;10388301;28;20218;-79
2022/12/21 22:17:18;;;;;;;28.20;16.10;;;4.20;99.90;;;;;;10442393;28;20194;-79
2022/12/21 22:34:02;;;;;;;27.90;14.47;;;4.20;99.90;;;;;;10413517;28;20306;-78
2022/12/21 22:45:07;;;;;;;29.47;13.77;;;4.30;99.90;;;;;;10380090;28;20198;-78
2022/12/21 22:50:29;;;;;;;33.67;15.70;;;4.30;99.90;;;;;;10372141;28;20276;-78
2022/12/21 22:55:51;;;;;;;28.00;13.63;;;4.30;99.90;;;;;;10358532;28;20206;-78
2022/12/21 23:01:15;;;;;;;35.73;17.63;;;4.40;99.90;;;;;;10406715;28;20248;-78
2022/12/21 23:06:56;;;;;;;41.80;19.53;;;4.30;99.90;;;;;;10361463;28;20288;-78
2022/12/21 23:29:25;;;;;;;37.63;18.03;;;4.30;99.90;;;;;;10332165;28;20239;-79
2022/12/21 23:46:11;;;;;;;27.57;14.60;;;4.30;99.90;;;;;;10298094;28;20214;-78
